Terminal Aerodrome Forecast
Issued by NWS

Home | Current Version | Previous Version | Graphics & Text | Print | Product List | Glossary On
Versions: 1 2 3 4 5 6 7 8 9 10 11 12 13 14 15 16 17 18 19 20 21 22 23 24
000
FTUS43 KLOT 162103 AAA
TAFORD
TAF AMD
KORD 162103Z 1621/1724 32012KT P6SM BKN035
     FM162300 31008KT P6SM SCT035 SCT080
     FM170900 27007KT P6SM FEW007 SCT120 BKN180
     FM171600 25012G18KT P6SM BKN070=

USA.gov is the U.S. government's official web portal to all federal, state and local government web resources and services.